createdAt,value
2018-04-08T00:01:06.093Z,13.53
2018-04-08T00:03:33.711Z,12.17
2018-04-08T00:06:01.259Z,13.83
2018-04-08T00:08:28.834Z,12.77
2018-04-08T00:10:56.386Z,13.07
2018-04-08T00:13:24.120Z,12.80
2018-04-08T00:15:52.422Z,12.23
2018-04-08T00:18:19.977Z,12.27
2018-04-08T00:20:47.549Z,11.80
2018-04-08T00:23:15.124Z,12.40
2018-04-08T00:25:42.666Z,11.50
2018-04-08T00:28:10.214Z,13.27
2018-04-08T00:30:37.784Z,15.40
2018-04-08T00:33:05.332Z,17.87
2018-04-08T00:35:32.989Z,12.60
2018-04-08T00:38:00.670Z,13.90
2018-04-08T00:40:28.230Z,12.70
2018-04-08T00:42:55.790Z,15.50
2018-04-08T00:45:23.349Z,12.50
2018-04-08T00:47:50.896Z,12.23
2018-04-08T00:50:18.463Z,12.33
2018-04-08T00:52:45.991Z,12.73
2018-04-08T00:55:13.562Z,10.70
2018-04-08T00:57:41.125Z,11.40
2018-04-08T01:00:08.689Z,11.00
2018-04-08T01:02:36.240Z,12.33
2018-04-08T01:05:03.804Z,11.47
2018-04-08T01:07:31.348Z,11.20
2018-04-08T01:09:59.086Z,11.10
2018-04-08T01:12:26.646Z,11.83
2018-04-08T01:14:54.194Z,12.00
2018-04-08T01:17:21.786Z,11.90
2018-04-08T01:19:49.334Z,11.30
2018-04-08T01:22:17.047Z,10.97
2018-04-08T01:24:44.606Z,12.57
2018-04-08T01:27:12.186Z,11.50
2018-04-08T01:29:39.725Z,12.73
2018-04-08T01:32:07.292Z,12.00
2018-04-08T01:34:34.825Z,13.50
2018-04-08T01:37:02.396Z,12.10
2018-04-08T01:39:29.944Z,10.40
2018-04-08T01:41:57.641Z,14.17
2018-04-08T01:44:25.228Z,12.37
2018-04-08T01:46:52.767Z,11.90
2018-04-08T01:49:20.313Z,12.90
2018-04-08T01:51:47.870Z,11.60
2018-04-08T01:54:15.424Z,12.20
2018-04-08T01:56:42.968Z,12.20
2018-04-08T01:59:10.536Z,12.57
2018-04-08T02:01:38.101Z,13.03
2018-04-08T02:04:05.660Z,12.13
2018-04-08T02:06:33.209Z,12.20
2018-04-08T02:09:00.765Z,12.60
2018-04-08T02:11:28.305Z,12.40
2018-04-08T02:13:55.868Z,12.70
2018-04-08T02:16:24.203Z,12.47
2018-04-08T02:18:51.764Z,12.47
2018-04-08T02:21:19.315Z,12.83
2018-04-08T02:23:46.896Z,11.83
2018-04-08T02:26:14.446Z,12.43
2018-04-08T02:28:41.987Z,13.10
2018-04-08T02:31:09.528Z,12.13
2018-04-08T02:33:37.180Z,12.77
2018-04-08T02:36:04.730Z,12.50
2018-04-08T02:38:32.303Z,12.97
2018-04-08T02:40:59.838Z,12.70
2018-04-08T02:43:27.587Z,11.83
2018-04-08T02:45:55.104Z,13.80
2018-04-08T02:48:22.734Z,12.10
2018-04-08T02:50:50.298Z,12.80
2018-04-08T02:53:17.834Z,14.20
2018-04-08T02:55:46.169Z,13.10
2018-04-08T02:58:13.964Z,12.73
2018-04-08T03:00:41.532Z,13.30
2018-04-08T03:03:09.081Z,13.33
2018-04-08T03:05:36.677Z,13.73
2018-04-08T03:08:04.217Z,14.60
2018-04-08T03:10:32.706Z,13.43
2018-04-08T03:13:01.013Z,13.40
2018-04-08T03:15:28.729Z,13.83
2018-04-08T03:17:56.264Z,13.23
2018-04-08T03:20:23.833Z,13.67
2018-04-08T03:22:51.393Z,13.77
2018-04-08T03:25:18.990Z,13.40
2018-04-08T03:27:46.535Z,13.90
2018-04-08T03:30:14.872Z,14.73
2018-04-08T03:32:42.441Z,13.80
2018-04-08T03:35:10.009Z,14.57
2018-04-08T03:37:37.549Z,12.70
2018-04-08T03:40:05.124Z,14.17
2018-04-08T03:42:32.672Z,14.40
2018-04-08T03:45:00.247Z,13.20
2018-04-08T03:47:27.809Z,14.50
2018-04-08T03:49:55.402Z,14.10
2018-04-08T03:52:22.945Z,13.73
2018-04-08T03:54:51.229Z,14.77
2018-04-08T03:57:19.557Z,13.73
2018-04-08T03:59:47.097Z,13.97
2018-04-08T04:02:14.906Z,14.40
2018-04-08T04:04:42.461Z,14.40
2018-04-08T04:07:10.082Z,13.57
2018-04-08T04:09:37.634Z,14.67
2018-04-08T04:12:05.216Z,13.97
2018-04-08T04:14:32.801Z,15.00
2018-04-08T04:17:00.358Z,14.27
2018-04-08T04:19:39.779Z,13.60
2018-04-08T04:22:19.029Z,12.80
2018-04-08T04:27:44.215Z,14.67
2018-04-08T04:30:11.770Z,13.60
2018-04-08T04:32:39.329Z,15.60
2018-04-08T04:35:06.894Z,15.03
2018-04-08T04:37:34.473Z,17.57
2018-04-08T04:40:02.040Z,16.57
2018-04-08T04:42:29.597Z,16.00
2018-04-08T04:44:57.140Z,15.43
2018-04-08T04:47:24.716Z,13.67
2018-04-08T04:49:52.473Z,15.27
2018-04-08T04:52:22.810Z,15.00
2018-04-08T04:54:50.370Z,15.97
2018-04-08T04:57:17.948Z,15.10
2018-04-08T04:59:45.517Z,15.70
2018-04-08T05:02:13.852Z,15.67
2018-04-08T05:04:41.400Z,15.70
2018-04-08T05:07:08.958Z,14.10
2018-04-08T05:09:36.511Z,15.17
2018-04-08T05:12:04.063Z,16.10
2018-04-08T05:14:31.633Z,16.60
2018-04-08T05:16:59.184Z,16.17
2018-04-08T05:19:27.588Z,17.50
2018-04-08T05:21:55.904Z,19.70
2018-04-08T05:24:23.559Z,17.03
2018-04-08T05:26:51.140Z,17.00
2018-04-08T05:29:18.835Z,16.57
2018-04-08T05:31:46.383Z,15.10
2018-04-08T05:34:13.944Z,17.00
2018-04-08T05:36:41.492Z,18.10
2018-04-08T05:39:09.057Z,18.20
2018-04-08T05:41:36.697Z,17.90
2018-04-08T05:44:04.270Z,16.43
2018-04-08T05:46:32.602Z,16.30
2018-04-08T05:49:00.173Z,16.70
2018-04-08T05:51:27.765Z,16.87
2018-04-08T05:53:55.434Z,15.60
2018-04-08T05:56:22.995Z,16.37
2018-04-08T05:58:51.394Z,15.93
2018-04-08T06:01:18.961Z,16.67
2018-04-08T06:03:46.508Z,15.73
2018-04-08T06:06:14.139Z,17.93
2018-04-08T06:08:41.678Z,16.60
2018-04-08T06:11:09.266Z,16.17
2018-04-08T06:13:36.821Z,14.90
2018-04-08T06:16:05.149Z,15.30
2018-04-08T06:18:32.688Z,14.83
2018-04-08T06:21:00.266Z,16.27
2018-04-08T06:23:27.832Z,15.67
2018-04-08T06:25:55.418Z,16.03
2018-04-08T06:28:22.964Z,15.83
2018-04-08T06:30:50.661Z,16.10
2018-04-08T06:33:19.022Z,15.50
2018-04-08T06:35:47.040Z,17.00
2018-04-08T06:38:14.632Z,16.00
2018-04-08T06:40:42.213Z,15.90
2018-04-08T06:43:09.985Z,16.50
2018-04-08T06:45:38.645Z,16.43
2018-04-08T06:48:06.205Z,16.77
2018-04-08T06:50:33.765Z,16.50
2018-04-08T06:53:01.338Z,16.40
2018-04-08T06:55:28.944Z,16.37
2018-04-08T06:57:56.517Z,16.63
2018-04-08T07:00:24.086Z,15.50
2018-04-08T07:02:51.726Z,18.80
2018-04-08T07:05:19.305Z,15.40
2018-04-08T07:07:46.874Z,16.60
2018-04-08T07:10:14.412Z,14.10
2018-04-08T07:12:41.990Z,14.80
2018-04-08T07:15:09.538Z,15.13
2018-04-08T07:17:37.101Z,15.57
2018-04-08T07:20:04.654Z,14.33
2018-04-08T07:22:32.232Z,15.10
2018-04-08T07:24:59.791Z,15.30
2018-04-08T07:27:28.148Z,15.90
2018-04-08T07:29:55.716Z,15.07
2018-04-08T07:32:23.300Z,15.53
2018-04-08T07:34:53.615Z,15.00
2018-04-08T07:37:21.192Z,14.53
2018-04-08T07:39:48.882Z,14.87
2018-04-08T07:42:16.474Z,14.93
2018-04-08T07:44:44.036Z,15.60
2018-04-08T07:47:11.618Z,14.03
2018-04-08T07:49:39.974Z,15.73
2018-04-08T07:52:07.542Z,15.97
2018-04-08T07:54:35.262Z,14.40
2018-04-08T07:57:02.810Z,15.50
2018-04-08T07:59:30.397Z,16.03
2018-04-08T08:01:57.979Z,14.87
2018-04-08T08:04:25.636Z,15.23
2018-04-08T08:06:53.254Z,14.87
2018-04-08T08:09:20.866Z,14.90
2018-04-08T08:11:48.464Z,14.43
2018-04-08T08:14:16.868Z,16.37
2018-04-08T08:16:44.409Z,17.30
2018-04-08T08:19:12.882Z,15.50
2018-04-08T08:21:41.216Z,16.90
2018-04-08T08:24:08.781Z,17.60
2018-04-08T08:26:36.338Z,16.73
2018-04-08T08:29:03.933Z,16.57
2018-04-08T08:31:31.509Z,17.00
2018-04-08T08:33:59.180Z,18.00
2018-04-08T08:36:26.963Z,15.67
2018-04-08T08:38:54.668Z,15.90
2018-04-08T08:41:23.295Z,16.40
2018-04-08T08:43:51.126Z,15.77
2018-04-08T08:46:18.728Z,15.90
2018-04-08T08:48:46.307Z,17.20
2018-04-08T08:51:13.861Z,16.53
2018-04-08T08:53:41.478Z,17.53
2018-04-08T08:56:09.046Z,16.40
2018-04-08T08:58:37.349Z,16.70
2018-04-08T09:01:04.921Z,17.67
2018-04-08T09:03:32.510Z,17.50
2018-04-08T09:06:00.081Z,17.23
2018-04-08T09:08:27.745Z,21.57
2018-04-08T09:10:55.346Z,18.20
2018-04-08T09:13:22.921Z,17.20
2018-04-08T09:15:50.664Z,17.53
2018-04-08T09:18:18.218Z,17.50
2018-04-08T09:20:47.435Z,17.70
2018-04-08T09:23:35.592Z,18.10
2018-04-08T09:26:05.713Z,18.57
2018-04-08T09:28:34.031Z,18.60
2018-04-08T09:31:02.635Z,18.80
2018-04-08T09:33:31.512Z,17.47
2018-04-08T09:35:59.123Z,15.37
2018-04-08T09:38:26.688Z,17.47
2018-04-08T09:40:55.130Z,18.73
2018-04-08T09:43:23.622Z,18.57
2018-04-08T09:45:51.779Z,17.40
2018-04-08T09:48:19.402Z,18.73
2018-04-08T09:50:46.991Z,18.60
2018-04-08T09:53:15.438Z,19.27
2018-04-08T09:55:43.647Z,19.20
2018-04-08T09:58:12.723Z,19.17
2018-04-08T10:00:45.973Z,19.00
2018-04-08T10:03:19.200Z,20.33
2018-04-08T10:05:46.842Z,18.70
2018-04-08T10:08:14.419Z,17.30
2018-04-08T10:10:41.998Z,18.07
2018-04-08T10:13:09.583Z,17.90
2018-04-08T10:15:37.898Z,18.13
2018-04-08T10:18:05.470Z,19.50
2018-04-08T10:20:33.029Z,19.87
2018-04-08T10:23:00.602Z,20.17
2018-04-08T10:25:28.166Z,20.53
2018-04-08T10:27:55.741Z,18.60
2018-04-08T10:30:23.298Z,20.53
2018-04-08T10:32:50.902Z,18.50
2018-04-08T10:35:18.453Z,20.70
2018-04-08T10:37:46.124Z,19.30
2018-04-08T10:40:13.725Z,20.90
2018-04-08T10:42:41.376Z,18.17
2018-04-08T10:45:08.990Z,20.17
2018-04-08T10:47:36.571Z,19.37
2018-04-08T10:50:04.201Z,19.20
2018-04-08T10:52:31.784Z,21.03
2018-04-08T10:54:59.597Z,20.00
2018-04-08T10:57:27.153Z,18.77
2018-04-08T10:59:54.766Z,21.53
2018-04-08T11:02:22.416Z,20.10
2018-04-08T11:04:50.275Z,19.93
2018-04-08T11:07:17.774Z,19.20
2018-04-08T11:09:45.394Z,18.80
2018-04-08T11:12:13.712Z,20.00
2018-04-08T11:14:42.161Z,20.90
2018-04-08T11:17:09.739Z,21.10
2018-04-08T11:19:37.325Z,22.40
2018-04-08T11:22:04.885Z,21.00
2018-04-08T11:24:32.520Z,20.73
2018-04-08T11:27:00.101Z,18.93
2018-04-08T11:29:27.707Z,18.93
2018-04-08T11:31:56.019Z,20.80
2018-04-08T11:34:23.669Z,19.93
2018-04-08T11:36:51.218Z,22.17
2018-04-08T11:39:18.813Z,19.83
2018-04-08T11:41:46.385Z,22.00
2018-04-08T11:44:13.951Z,19.17
2018-04-08T11:46:41.530Z,20.20
2018-04-08T11:49:09.376Z,21.63
2018-04-08T11:51:36.940Z,22.10
2018-04-08T11:54:04.502Z,19.40
2018-04-08T11:56:32.091Z,20.40
2018-04-08T11:58:59.665Z,22.37
2018-04-08T12:01:27.260Z,20.83
2018-04-08T12:03:55.709Z,21.10
2018-04-08T12:06:23.301Z,19.60
2018-04-08T12:08:50.875Z,20.40
2018-04-08T12:11:18.487Z,20.13
2018-04-08T12:13:46.033Z,19.53
2018-04-08T12:16:14.394Z,20.43
2018-04-08T12:18:42.595Z,20.30
2018-04-08T12:21:11.051Z,20.30
2018-04-08T12:23:39.452Z,20.73
2018-04-08T12:26:07.081Z,20.37
2018-04-08T12:28:35.011Z,20.80
2018-04-08T12:31:02.602Z,19.97
2018-04-08T12:33:30.584Z,20.20
2018-04-08T12:35:59.384Z,20.80
2018-04-08T12:38:26.970Z,20.10
2018-04-08T12:40:54.696Z,21.27
2018-04-08T12:43:22.749Z,22.60
2018-04-08T12:45:50.307Z,21.73
2018-04-08T12:48:17.932Z,20.52
2018-04-08T12:50:45.485Z,23.70
2018-04-08T12:53:13.393Z,22.30
2018-04-08T12:55:40.974Z,20.97
2018-04-08T12:58:08.578Z,22.60
2018-04-08T13:00:36.171Z,20.27
2018-04-08T13:03:03.750Z,22.13
2018-04-08T13:05:31.443Z,21.03
2018-04-08T13:07:59.790Z,21.30
2018-04-08T13:10:27.439Z,21.20
2018-04-08T13:12:55.019Z,20.80
2018-04-08T13:15:23.473Z,20.17
2018-04-08T13:17:51.206Z,22.00
2018-04-08T13:20:18.759Z,21.80
2018-04-08T13:22:46.334Z,19.70
2018-04-08T13:25:13.927Z,21.60
2018-04-08T13:27:41.484Z,21.40
2018-04-08T13:30:09.301Z,21.03
2018-04-08T13:32:36.921Z,22.60
2018-04-08T13:35:04.605Z,22.10
2018-04-08T13:37:32.973Z,21.13
2018-04-08T13:40:01.296Z,22.53
2018-04-08T13:42:28.849Z,21.33
2018-04-08T13:44:56.432Z,21.27
2018-04-08T13:47:23.992Z,19.80
2018-04-08T13:49:51.564Z,19.97
2018-04-08T13:52:19.122Z,20.30
2018-04-08T13:54:46.688Z,20.63
2018-04-08T13:57:14.458Z,19.97
2018-04-08T13:59:42.059Z,21.00
2018-04-08T14:02:09.650Z,20.43
2018-04-08T14:04:37.237Z,21.53
2018-04-08T14:07:05.552Z,22.73
2018-04-08T14:09:33.121Z,22.30
2018-04-08T14:12:00.674Z,22.77
2018-04-08T14:14:28.258Z,21.87
2018-04-08T14:16:55.800Z,22.60
2018-04-08T14:19:23.401Z,21.50
2018-04-08T14:21:51.060Z,22.53
2018-04-08T14:24:18.659Z,22.60
2018-04-08T14:26:47.028Z,22.93
2018-04-08T14:29:14.765Z,22.93
2018-04-08T14:31:42.321Z,22.27
2018-04-08T14:34:09.863Z,22.63
2018-04-08T14:36:37.604Z,23.13
2018-04-08T14:39:05.976Z,23.07
2018-04-08T14:41:33.545Z,25.00
2018-04-08T14:44:01.098Z,23.77
2018-04-08T14:46:28.694Z,24.60
2018-04-08T14:48:56.516Z,25.10
2018-04-08T14:51:24.902Z,25.07
2018-04-08T14:53:52.446Z,25.30
2018-04-08T14:56:20.800Z,23.87
2018-04-08T14:58:48.348Z,24.37
2018-04-08T15:01:15.925Z,25.60
2018-04-08T15:03:43.484Z,26.20
2018-04-08T15:06:11.062Z,24.37
2018-04-08T15:08:38.653Z,26.83
2018-04-08T15:11:07.052Z,24.30
2018-04-08T15:13:34.625Z,24.60
2018-04-08T15:16:02.448Z,26.97
2018-04-08T15:18:30.027Z,24.77
2018-04-08T15:20:58.166Z,26.00
2018-04-08T15:23:26.788Z,24.03
2018-04-08T15:25:54.351Z,25.80
2018-04-08T15:28:23.192Z,24.13
2018-04-08T15:30:51.612Z,25.33
2018-04-08T15:33:19.220Z,25.70
2018-04-08T15:35:47.580Z,25.70
2018-04-08T15:38:15.504Z,27.87
2018-04-08T15:40:43.057Z,27.63
2018-04-08T15:43:10.628Z,26.70
2018-04-08T15:45:38.185Z,27.07
2018-04-08T15:48:05.765Z,27.17
2018-04-08T15:50:33.314Z,25.83
2018-04-08T15:53:00.902Z,28.40
2018-04-08T15:55:28.470Z,30.07
2018-04-08T15:57:56.066Z,27.37
2018-04-08T16:00:23.687Z,27.47
2018-04-08T16:02:51.301Z,27.67
2018-04-08T16:05:19.024Z,26.80
2018-04-08T16:07:46.626Z,27.20
2018-04-08T16:10:14.212Z,30.30
2018-04-08T16:12:41.963Z,28.57
2018-04-08T16:15:09.628Z,28.07
2018-04-08T16:17:37.306Z,31.00
2018-04-08T16:20:04.978Z,28.80
2018-04-08T16:22:32.570Z,29.00
2018-04-08T16:25:00.950Z,28.67
2018-04-08T16:27:28.515Z,29.60
2018-04-08T16:29:56.884Z,29.07
2018-04-08T16:32:24.462Z,31.03
2018-04-08T16:34:53.280Z,31.00
2018-04-08T16:37:20.845Z,31.07
2018-04-08T16:39:48.420Z,31.60
2018-04-08T16:42:15.967Z,30.03
2018-04-08T16:44:43.623Z,33.17
2018-04-08T16:47:11.179Z,31.00
2018-04-08T16:49:38.913Z,30.83
2018-04-08T16:52:07.430Z,30.97
2018-04-08T16:54:34.994Z,30.30
2018-04-08T16:57:02.585Z,33.77
2018-04-08T16:59:30.147Z,31.77
2018-04-08T17:01:57.726Z,30.07
2018-04-08T17:04:25.308Z,30.07
2018-04-08T17:06:53.667Z,30.20
2018-04-08T17:09:21.481Z,31.07
2018-04-08T17:11:49.074Z,32.47
2018-04-08T17:14:16.626Z,31.20
2018-04-08T17:16:44.229Z,34.40
2018-04-08T17:19:11.781Z,32.50
2018-04-08T17:21:39.360Z,32.67
2018-04-08T17:24:06.943Z,36.33
2018-04-08T17:26:34.808Z,34.80
2018-04-08T17:29:04.066Z,33.43
2018-04-08T17:31:31.664Z,34.37
2018-04-08T17:33:59.209Z,34.03
2018-04-08T17:36:26.816Z,36.30
2018-04-08T17:38:54.362Z,37.53
2018-04-08T17:41:21.995Z,37.20
2018-04-08T17:43:49.568Z,36.93
2018-04-08T17:46:17.134Z,37.70
2018-04-08T17:48:44.768Z,37.43
2018-04-08T17:51:12.308Z,35.40
2018-04-08T17:53:39.886Z,36.87
2018-04-08T17:56:07.457Z,37.17
2018-04-08T17:58:35.042Z,36.70
2018-04-08T18:01:02.612Z,37.00
2018-04-08T18:03:30.234Z,39.00
2018-04-08T18:05:57.835Z,36.40
2018-04-08T18:08:25.422Z,36.17
2018-04-08T18:10:53.069Z,38.23
2018-04-08T18:13:21.459Z,40.03
2018-04-08T18:15:49.790Z,39.50
2018-04-08T18:18:17.370Z,41.63
2018-04-08T18:20:44.963Z,38.03
2018-04-08T18:23:12.539Z,38.97
2018-04-08T18:25:40.089Z,38.87
2018-04-08T18:28:07.707Z,41.57
2018-04-08T18:30:35.276Z,40.00
2018-04-08T18:33:02.810Z,40.40
2018-04-08T18:35:30.384Z,37.70
2018-04-08T18:37:57.937Z,40.73
2018-04-08T18:40:25.513Z,40.90
2018-04-08T18:42:53.207Z,40.10
2018-04-08T18:45:21.551Z,40.07
2018-04-08T18:47:49.129Z,38.20
2018-04-08T18:50:17.516Z,38.77
2018-04-08T18:52:45.293Z,39.37
2018-04-08T18:55:12.905Z,37.30
2018-04-08T18:57:40.450Z,37.37
2018-04-08T19:00:08.063Z,37.60
2018-04-08T19:02:36.400Z,41.60
2018-04-08T19:05:03.987Z,40.60
2018-04-08T19:07:31.578Z,39.53
2018-04-08T19:09:59.383Z,38.60
2018-04-08T19:12:26.965Z,42.57
2018-04-08T19:15:00.070Z,38.37
2018-04-08T19:17:33.122Z,37.97
2018-04-08T19:20:00.715Z,40.50
2018-04-08T19:22:28.271Z,41.47
2018-04-08T19:24:56.626Z,41.03
2018-04-08T19:27:29.925Z,39.77
2018-04-08T19:29:57.497Z,39.70
2018-04-08T19:32:25.414Z,41.50
2018-04-08T19:34:53.047Z,39.77
2018-04-08T19:37:20.637Z,42.57
2018-04-08T19:39:48.206Z,40.70
2018-04-08T19:42:15.792Z,41.67
2018-04-08T19:44:43.384Z,40.83
2018-04-08T19:47:11.737Z,43.03
2018-04-08T19:49:39.284Z,44.33
2018-04-08T19:52:06.858Z,42.57
2018-04-08T19:54:34.411Z,45.33
2018-04-08T19:57:01.994Z,44.17
2018-04-08T19:59:29.776Z,47.63
2018-04-08T20:01:59.430Z,44.60
2018-04-08T20:04:27.020Z,40.57
2018-04-08T20:06:54.588Z,43.57
2018-04-08T20:09:22.309Z,40.80
2018-04-08T20:11:49.937Z,41.40
2018-04-08T20:14:17.554Z,41.10
2018-04-08T20:16:45.130Z,42.17
2018-04-08T20:19:12.722Z,39.00
2018-04-08T20:21:40.326Z,43.27
2018-04-08T20:24:07.888Z,42.80
2018-04-08T20:26:35.448Z,43.30
2018-04-08T20:29:03.161Z,41.50
2018-04-08T20:31:30.742Z,42.47
2018-04-08T20:33:58.341Z,40.87
2018-04-08T20:36:25.898Z,41.33
2018-04-08T20:38:53.496Z,44.30
2018-04-08T20:41:21.050Z,41.47
2018-04-08T20:43:48.714Z,41.63
2018-04-08T20:46:16.293Z,41.50
2018-04-08T20:48:43.931Z,44.00
2018-04-08T20:51:11.491Z,43.70
2018-04-08T20:53:39.106Z,42.33
2018-04-08T20:56:06.659Z,43.50
2018-04-08T20:58:34.473Z,44.80
2018-04-08T21:01:02.872Z,42.70
2018-04-08T21:03:30.451Z,43.27
2018-04-08T21:05:58.099Z,44.87
2018-04-08T21:08:25.742Z,44.93
2018-04-08T21:10:54.054Z,42.03
2018-04-08T21:13:21.689Z,42.93
2018-04-08T21:15:49.260Z,42.70
2018-04-08T21:18:16.841Z,42.60
2018-04-08T21:20:44.389Z,40.10
2018-04-08T21:23:11.939Z,42.70
2018-04-08T21:25:39.513Z,42.40
2018-04-08T21:28:07.090Z,45.03
2018-04-08T21:30:34.657Z,40.77
2018-04-08T21:33:02.251Z,42.33
2018-04-08T21:35:29.830Z,42.07
2018-04-08T21:37:57.478Z,41.60
2018-04-08T21:40:25.818Z,40.80
2018-04-08T21:42:53.465Z,38.10
2018-04-08T21:45:21.271Z,40.23
2018-04-08T21:47:49.674Z,39.50
2018-04-08T21:50:17.253Z,40.70
2018-04-08T21:52:44.880Z,37.53
2018-04-08T21:55:13.441Z,39.83
2018-04-08T21:57:40.989Z,40.03
2018-04-08T22:00:08.581Z,37.57
2018-04-08T22:02:36.128Z,38.13
2018-04-08T22:05:04.784Z,36.70
2018-04-08T22:07:32.365Z,38.23
2018-04-08T22:09:59.911Z,38.07
2018-04-08T22:12:27.516Z,39.20
2018-04-08T22:14:55.101Z,37.83
2018-04-08T22:17:22.687Z,40.27
2018-04-08T22:19:50.260Z,40.30
2018-04-08T22:22:17.822Z,37.80
2018-04-08T22:24:45.535Z,37.30
2018-04-08T22:27:13.096Z,41.40
2018-04-08T22:29:40.651Z,40.37
2018-04-08T22:32:08.213Z,38.73
2018-04-08T22:34:35.938Z,39.60
2018-04-08T22:37:04.284Z,40.20
2018-04-08T22:39:31.845Z,38.10
2018-04-08T22:41:59.418Z,40.63
2018-04-08T22:44:26.973Z,36.07
2018-04-08T22:46:54.553Z,34.70
2018-04-08T22:49:22.117Z,36.90
2018-04-08T22:51:50.458Z,38.67
2018-04-08T22:54:17.997Z,38.00
2018-04-08T22:56:45.579Z,36.60
2018-04-08T22:59:13.167Z,40.07
2018-04-08T23:01:41.513Z,38.77
2018-04-08T23:04:09.054Z,41.20
2018-04-08T23:06:36.614Z,35.70
2018-04-08T23:09:04.191Z,36.90
2018-04-08T23:11:31.802Z,36.00
2018-04-08T23:13:59.334Z,39.27
2018-04-08T23:16:26.872Z,37.27
2018-04-08T23:18:54.440Z,37.40
2018-04-08T23:21:21.985Z,35.87
2018-04-08T23:23:49.630Z,35.73
2018-04-08T23:26:17.782Z,38.63
2018-04-08T23:28:45.407Z,38.77
2018-04-08T23:31:12.966Z,37.30
2018-04-08T23:33:40.519Z,37.33
2018-04-08T23:36:08.057Z,36.00
2018-04-08T23:38:35.647Z,37.83
2018-04-08T23:41:03.208Z,38.67
2018-04-08T23:43:30.764Z,38.17
2018-04-08T23:45:58.681Z,38.37
2018-04-08T23:48:26.410Z,47.93
2018-04-08T23:50:54.712Z,43.57
2018-04-08T23:53:22.290Z,43.60
2018-04-08T23:55:49.834Z,38.00
2018-04-08T23:58:17.434Z,36.93
